A- A+ FrançaisEnglishEspañol中国

Services sur Internet Soldes sur Internet Des idées de cadeaux Météo Météo aéro

La météo à : Autours de vous Tarbes-Lourdes-PyrénéesNimes-Courbessac Toulouse-BlagnacAnnecy-Meythet

La météo aéronautique pour les pilotes, la préparation du vol avec les METAR (METeorological Aerodrome Report, message d'observation des conditions météorologiques pour l'aviation) et Les TAF (Terminal Aerodrome Forecast : message de prévision à court terme des conditions météorologiques pour l'aviation). Et les autres ressources comme les VAC (Visual Approch Chart) et les NOTAM (Notice To Airman) pour préprer les vols.

Aéroport London (Canada) / OACI CYXU/ IATA YXU

L'altitude de l'aéroport London est de 278 m = 912 ft. Il est situé à proximité de London (Canada). La météo générale à 5 jours est disponible pour Three Bridges situé à 8.1 km.

METAR de l'aéroport London - CYXU

CYXU 092000Z 20014G20KT 2SM -RA BR OVC005 08/07 A2943 RMK ST8 SLP970

Décodage du METAR de l'aéroport London (CA)

METAR émis par CYXU le lundi 9 décembre 2019 à 20:00 heure TU, il y a 42 minutes.

La visibilité est de 3.2 km = 2 sm.

La température est de 8°C = 46 °F et le point rosée est de 7°C = 45 °F . Ce qui correspond à 93% d'humidité relative.

Le QNH est de 997 hPa = 29.44 inHg

Vent de 14 kt = 26 km/h avec des rafales à 20 kt = 37 km/h, orienté à 200°.

Nuages : Couverture nuageuse soudée à 500 ft = 150 mètres.

-RA BR

RMK ST8 SLP970

TAF de l'aéroport London - CYXU

CYXU 091744Z 0918/1018 19010G20KT 2SM -RA BR OVC004 TEMPO 0918/0922 6SM -RA BR OVC006 FM092200 22013G23KT 4SM -SHRA BR OVC006 TEMPO 0922/1005 P6SM NSW SCT006 BKN012 OVC040 FM100500 23015G25KT P6SM BKN015 BKN050 BECMG 1011/1013 29012G22KT FM101700 28012G22KT P6SM BKN025 RMK NXT FCST BY 100000Z

CYXU 091744Z 0918/1018 19010G20KT 2SM faible RA brume couverture nuageuse soudée à 004 temporairement 0918/0922 6SM faible RA brume couverture nuageuse soudée à 006 FM092200 22013G23KT 4SM faible SHRA brume couverture nuageuse soudée à 006 temporairement 0922/1005 P6SM NSW nuages épars à 006 couverture nuageuse fragmentée à 012 couverture nuageuse soudée à 040 FM100500 23015G25KT P6SM couverture nuageuse fragmentée à 015 couverture nuageuse fragmentée à 050 devenant 1011/1013 29012G22KT FM101700 28012G22KT P6SM couverture nuageuse fragmentée à 025 remarques NXT trombe ST BY 100000Z

Aéroport à proximité de London

Météo générale à 5 jours à Three Bridges (8.1 km)Aéroport St Thomas Muni (30 km)Aéroport Centralia Huron Air Park (40 km)Aéroport Brantford (67 km)Aéroport Kitchener Waterloo Guelph Regional (79 km)Aéroport Goderich (93 km)Aéroport Sarnia (94 km)

Vue aérienne de l'aéroport London

NOTAM de l'aéroport London

Les NOTAM sont fournis sans aucune garantie de leur actualité. Le pilote est le seul responsable de la vérification de sa validité avant de l'utiliser opérationnellement pour préparer un vol ou l'utiliser lors de sa navigation.

Pas de NOTAM

Sources des données